createdAt,value
2022-12-20T00:03:20.864Z,38.23
2022-12-20T00:07:22.101Z,39.17
2022-12-20T00:11:24.004Z,41.37
2022-12-20T00:15:25.293Z,47.27
2022-12-20T00:19:26.629Z,40.13
2022-12-20T00:23:29.184Z,48.10
2022-12-20T00:27:30.394Z,40.00
2022-12-20T00:31:31.944Z,35.13
2022-12-20T00:35:33.891Z,43.93
2022-12-20T00:39:35.077Z,39.23
2022-12-20T00:43:37.338Z,41.10
2022-12-20T00:47:38.524Z,38.60
2022-12-20T00:51:39.720Z,37.03
2022-12-20T00:55:42.614Z,38.87
2022-12-20T00:59:43.771Z,40.73
2022-12-20T01:03:45.023Z,38.73
2022-12-20T01:07:46.173Z,34.97
2022-12-20T01:11:47.392Z,35.13
2022-12-20T01:15:48.581Z,38.17
2022-12-20T01:19:49.747Z,36.13
2022-12-20T01:23:51.573Z,34.50
2022-12-20T01:27:53.769Z,36.23
2022-12-20T01:31:55.062Z,35.67
2022-12-20T01:36:02.574Z,35.97
2022-12-20T01:40:04.911Z,35.30
2022-12-20T01:44:19.340Z,36.53
2022-12-20T01:48:25.540Z,33.33
2022-12-20T01:52:39.951Z,39.20
2022-12-20T01:56:43.970Z,35.57
2022-12-20T02:00:45.805Z,31.70
2022-12-20T02:04:47.208Z,32.80
2022-12-20T02:08:50.392Z,34.67
2022-12-20T02:12:58.092Z,33.30
2022-12-20T02:17:28.686Z,34.63
2022-12-20T02:21:33.794Z,34.63
2022-12-20T02:26:10.161Z,43.53
2022-12-20T02:30:14.884Z,35.53
2022-12-20T02:34:18.264Z,41.40
2022-12-20T02:38:32.325Z,31.60
2022-12-20T02:42:33.999Z,34.33
2022-12-20T02:46:36.989Z,36.90
2022-12-20T02:50:42.232Z,32.40
2022-12-20T02:54:43.648Z,33.70
2022-12-20T02:59:00.278Z,33.90
2022-12-20T03:03:20.737Z,31.47
2022-12-20T03:07:22.268Z,33.40
2022-12-20T03:11:23.459Z,36.10
2022-12-20T03:15:24.659Z,32.83
2022-12-20T03:19:25.968Z,32.57
2022-12-20T03:23:27.505Z,34.00
2022-12-20T03:27:28.886Z,28.97
2022-12-20T03:31:30.230Z,37.97
2022-12-20T03:35:31.707Z,37.20
2022-12-20T03:39:32.920Z,27.90
2022-12-20T03:43:34.218Z,34.37
2022-12-20T03:47:35.409Z,30.20
2022-12-20T03:51:36.803Z,36.77
2022-12-20T03:55:37.970Z,33.43
2022-12-20T03:59:39.374Z,29.90
2022-12-20T04:03:40.632Z,31.17
2022-12-20T04:07:41.859Z,30.73
2022-12-20T04:11:43.117Z,30.30
2022-12-20T04:15:44.358Z,33.03
2022-12-20T04:19:45.520Z,30.27
2022-12-20T04:23:46.720Z,31.57
2022-12-20T04:27:47.937Z,31.33
2022-12-20T04:31:49.210Z,29.40
2022-12-20T04:35:51.308Z,32.70
2022-12-20T04:39:52.668Z,30.27
2022-12-20T04:43:56.366Z,29.40
2022-12-20T04:47:57.561Z,32.67
2022-12-20T04:52:01.437Z,48.60
2022-12-20T04:56:03.003Z,46.90
2022-12-20T05:00:04.867Z,33.43
2022-12-20T05:04:06.130Z,36.53
2022-12-20T05:08:07.364Z,31.77
2022-12-20T05:12:08.550Z,36.50
2022-12-20T05:16:09.812Z,43.30
2022-12-20T05:20:12.206Z,36.40
2022-12-20T05:24:18.108Z,38.27
2022-12-20T05:28:19.266Z,35.53
2022-12-20T05:32:20.432Z,30.30
2022-12-20T05:36:21.617Z,35.23
2022-12-20T05:40:22.824Z,35.57
2022-12-20T05:44:24.031Z,33.23
2022-12-20T05:48:27.141Z,33.97
2022-12-20T05:52:28.501Z,42.20
2022-12-20T05:56:29.726Z,37.10
2022-12-20T06:00:30.895Z,31.90
2022-12-20T06:04:32.356Z,34.70
2022-12-20T06:08:33.645Z,34.77
2022-12-20T06:12:34.836Z,36.43
2022-12-20T06:16:36.075Z,30.70
2022-12-20T06:20:37.707Z,32.60
2022-12-20T06:24:44.362Z,32.10
2022-12-20T06:28:42.293Z,34.40
2022-12-20T06:32:43.493Z,31.60
2022-12-20T06:36:44.743Z,33.83
2022-12-20T06:40:45.928Z,27.93
2022-12-20T06:44:47.469Z,31.17
2022-12-20T06:48:48.629Z,33.23
2022-12-20T06:52:49.828Z,36.50
2022-12-20T06:56:51.001Z,31.77
2022-12-20T07:00:52.280Z,34.10
2022-12-20T07:04:53.450Z,29.77
2022-12-20T07:08:55.027Z,29.77
2022-12-20T07:12:56.224Z,35.13
2022-12-20T07:16:57.440Z,35.00
2022-12-20T07:21:00.339Z,27.67
2022-12-20T07:25:01.976Z,33.17
2022-12-20T07:29:04.683Z,29.87
2022-12-20T07:33:05.847Z,33.03
2022-12-20T07:37:08.045Z,41.93
2022-12-20T07:41:12.649Z,38.77
2022-12-20T07:45:14.577Z,31.00
2022-12-20T07:49:15.487Z,42.90
2022-12-20T07:53:17.349Z,35.03
2022-12-20T07:57:24.816Z,35.10
2022-12-20T08:01:29.538Z,33.37
2022-12-20T08:05:32.201Z,30.97
2022-12-20T08:09:36.820Z,33.80
2022-12-20T08:13:45.682Z,32.73
2022-12-20T08:17:42.220Z,33.97
2022-12-20T08:21:45.247Z,31.00
2022-12-20T08:25:46.556Z,27.47
2022-12-20T08:29:48.963Z,26.30
2022-12-20T08:33:53.504Z,29.87
2022-12-20T08:37:54.701Z,50.37
2022-12-20T08:41:55.885Z,35.20
2022-12-20T08:45:57.297Z,39.90
2022-12-20T08:49:58.553Z,34.50
2022-12-20T08:53:59.952Z,28.97
2022-12-20T08:58:01.643Z,28.17
2022-12-20T09:02:02.936Z,26.40
2022-12-20T09:06:06.681Z,30.77
2022-12-20T09:10:08.998Z,37.27
2022-12-20T09:14:10.149Z,36.23
2022-12-20T09:18:11.444Z,34.90
2022-12-20T09:22:12.637Z,30.27
2022-12-20T09:26:15.542Z,34.27
2022-12-20T09:30:16.833Z,30.77
2022-12-20T09:34:18.036Z,35.40
2022-12-20T09:38:19.211Z,37.00
2022-12-20T09:42:23.727Z,29.40
2022-12-20T09:46:25.899Z,33.40
2022-12-20T09:50:46.097Z,29.70
2022-12-20T09:54:51.071Z,30.67
2022-12-20T09:59:01.796Z,33.80
2022-12-20T10:03:09.931Z,30.80
2022-12-20T10:07:16.596Z,29.97
2022-12-20T10:11:30.527Z,28.33
2022-12-20T10:15:37.367Z,26.03
2022-12-20T10:19:57.016Z,25.70
2022-12-20T10:24:04.721Z,30.03
2022-12-20T10:28:11.971Z,25.27
2022-12-20T10:32:16.360Z,30.80
2022-12-20T10:36:21.480Z,25.37
2022-12-20T10:40:53.281Z,26.07
2022-12-20T10:44:32.651Z,30.00
2022-12-20T10:48:37.153Z,26.40
2022-12-20T10:52:38.431Z,28.13
2022-12-20T10:56:39.807Z,25.20
2022-12-20T11:00:42.127Z,28.00
2022-12-20T11:04:47.091Z,23.90
2022-12-20T11:08:52.772Z,25.70
2022-12-20T11:13:01.422Z,34.77
2022-12-20T11:17:09.008Z,32.03
2022-12-20T11:21:19.435Z,31.50
2022-12-20T11:25:27.142Z,29.37
2022-12-20T11:29:41.237Z,30.70
2022-12-20T11:34:20.237Z,25.83
2022-12-20T11:38:31.114Z,26.00
2022-12-20T11:42:47.981Z,25.07
2022-12-20T11:47:02.090Z,27.77
2022-12-20T11:51:10.955Z,23.77
2022-12-20T11:55:21.051Z,21.90
2022-12-20T11:59:44.159Z,23.30
2022-12-20T12:03:55.176Z,22.67
2022-12-20T12:08:03.181Z,23.20
2022-12-20T12:12:24.536Z,21.90
2022-12-20T12:16:29.813Z,21.37
2022-12-20T12:20:49.880Z,20.17
2022-12-20T12:24:54.891Z,26.67
2022-12-20T12:28:58.953Z,79.37
2022-12-20T12:33:03.881Z,37.80
2022-12-20T12:37:42.690Z,25.87
2022-12-20T12:42:06.570Z,24.63
2022-12-20T12:46:17.732Z,23.53
2022-12-20T12:50:25.832Z,23.53
2022-12-20T12:54:38.904Z,23.60
2022-12-20T12:58:46.553Z,25.00
2022-12-20T13:02:51.551Z,29.90
2022-12-20T13:06:59.424Z,25.77
2022-12-20T13:11:01.758Z,29.70
2022-12-20T13:15:25.125Z,38.50
2022-12-20T13:19:30.139Z,34.67
2022-12-20T13:23:31.441Z,32.43
2022-12-20T13:27:35.822Z,31.30
2022-12-20T13:31:37.008Z,28.63
2022-12-20T13:35:48.074Z,31.73
2022-12-20T13:39:49.662Z,25.53
2022-12-20T13:43:52.242Z,26.27
2022-12-20T13:47:57.165Z,22.70
2022-12-20T13:52:14.922Z,21.43
2022-12-20T13:56:41.054Z,25.80
2022-12-20T14:00:43.325Z,23.30
2022-12-20T14:04:48.086Z,24.90
2022-12-20T14:08:51.919Z,23.47
2022-12-20T14:12:54.644Z,27.80
2022-12-20T14:16:55.872Z,27.37
2022-12-20T14:21:04.632Z,32.70
2022-12-20T14:25:08.223Z,30.37
2022-12-20T14:29:11.844Z,34.13
2022-12-20T14:33:28.952Z,28.77
2022-12-20T14:37:35.895Z,30.87
2022-12-20T14:41:40.285Z,33.30
2022-12-20T14:45:41.884Z,30.73
2022-12-20T14:49:55.024Z,38.50
2022-12-20T14:53:58.283Z,30.83
2022-12-20T14:57:59.964Z,26.40
2022-12-20T15:02:04.979Z,24.10
2022-12-20T15:06:10.689Z,24.83
2022-12-20T15:10:12.708Z,26.50
2022-12-20T15:14:23.507Z,27.80
2022-12-20T15:18:24.689Z,27.83
2022-12-20T15:22:27.213Z,28.43
2022-12-20T15:26:30.404Z,27.47
2022-12-20T15:30:31.566Z,30.23
2022-12-20T15:34:37.954Z,33.70
2022-12-20T15:42:42.865Z,41.23
2022-12-20T15:46:44.070Z,36.00
2022-12-20T15:50:54.205Z,44.90
2022-12-20T15:54:55.455Z,46.80
2022-12-20T15:58:56.632Z,38.83
2022-12-20T16:02:59.928Z,58.40
2022-12-20T16:07:02.982Z,49.23
2022-12-20T16:11:07.159Z,44.47
2022-12-20T16:15:20.920Z,34.70
2022-12-20T16:19:22.120Z,31.07
2022-12-20T16:23:23.316Z,35.43
2022-12-20T16:27:24.485Z,39.30
2022-12-20T16:31:30.362Z,39.10
2022-12-20T16:35:36.576Z,30.97
2022-12-20T16:39:37.760Z,40.57
2022-12-20T16:43:39.349Z,30.60
2022-12-20T16:47:40.515Z,33.57
2022-12-20T16:51:47.026Z,35.53
2022-12-20T16:55:48.282Z,37.47
2022-12-20T16:59:50.505Z,33.80
2022-12-20T17:17:14.196Z,45.00
2022-12-20T17:21:22.269Z,44.13
2022-12-20T17:25:27.357Z,38.53
2022-12-20T17:29:28.539Z,36.23
2022-12-20T17:33:29.929Z,33.07
2022-12-20T17:37:31.121Z,30.47
2022-12-20T17:41:33.041Z,27.93
2022-12-20T17:45:35.582Z,22.77
2022-12-20T17:49:36.732Z,24.83
2022-12-20T17:57:45.729Z,23.80
2022-12-20T18:01:47.165Z,23.90
2022-12-20T18:05:48.495Z,24.20
2022-12-20T18:09:50.221Z,27.83
2022-12-20T18:13:53.056Z,27.43
2022-12-20T18:17:54.294Z,31.77
2022-12-20T18:21:57.359Z,27.00
2022-12-20T18:26:17.752Z,24.93
2022-12-20T18:30:18.949Z,24.97
2022-12-20T18:34:20.176Z,24.80
2022-12-20T18:38:22.732Z,23.23
2022-12-20T18:42:23.930Z,23.87
2022-12-20T18:46:25.776Z,20.77
2022-12-20T18:50:27.244Z,23.90
2022-12-20T18:54:29.674Z,22.47
2022-12-20T18:58:31.592Z,24.53
2022-12-20T19:02:32.883Z,28.20
2022-12-20T19:06:36.220Z,29.93
2022-12-20T19:10:37.456Z,21.90
2022-12-20T19:14:39.177Z,24.90
2022-12-20T19:18:41.996Z,23.93
2022-12-20T19:22:43.175Z,24.40
2022-12-20T19:26:44.405Z,26.50
2022-12-20T19:30:45.623Z,25.83
2022-12-20T19:34:46.901Z,26.73
2022-12-20T19:38:51.033Z,25.87
2022-12-20T19:42:52.178Z,29.33
2022-12-20T19:46:53.482Z,26.90
2022-12-20T19:51:11.057Z,27.60
2022-12-20T19:55:12.559Z,27.37
2022-12-20T19:59:15.366Z,24.40
2022-12-20T20:03:17.311Z,26.87
2022-12-20T20:07:19.253Z,27.73
2022-12-20T20:11:20.601Z,24.57
2022-12-20T20:15:21.803Z,26.70
2022-12-20T20:19:23.045Z,29.63
2022-12-20T20:23:24.728Z,31.10
2022-12-20T20:27:25.809Z,29.30
2022-12-20T20:31:27.297Z,27.37
2022-12-20T20:35:28.465Z,25.90
2022-12-20T20:39:29.675Z,30.23
2022-12-20T20:43:32.757Z,27.93
2022-12-20T20:47:34.024Z,26.30
2022-12-20T20:51:35.234Z,25.40
2022-12-20T20:55:37.004Z,23.87
2022-12-20T20:59:38.850Z,38.63
2022-12-20T21:03:40.080Z,41.50
2022-12-20T21:07:41.396Z,34.97
2022-12-20T21:11:43.441Z,23.77
2022-12-20T21:15:45.763Z,22.80
2022-12-20T21:19:47.052Z,26.53
2022-12-20T21:23:48.785Z,21.40
2022-12-20T21:27:49.953Z,22.27
2022-12-20T21:31:51.075Z,18.87
2022-12-20T21:36:07.062Z,20.50
2022-12-20T21:40:09.478Z,22.87
2022-12-20T21:44:11.299Z,17.03
2022-12-20T21:48:12.447Z,22.80
2022-12-20T21:52:13.620Z,15.97
2022-12-20T21:56:15.883Z,34.80
2022-12-20T22:00:19.160Z,32.23
2022-12-20T22:04:20.333Z,38.97
2022-12-20T22:08:23.078Z,38.50
2022-12-20T22:12:24.538Z,35.07
2022-12-20T22:16:31.468Z,37.93
2022-12-20T22:20:36.105Z,35.63
2022-12-20T22:24:37.302Z,32.80
2022-12-20T22:28:41.128Z,34.83
2022-12-20T22:32:42.337Z,30.30
2022-12-20T22:36:43.584Z,29.70
2022-12-20T22:40:44.727Z,28.40
2022-12-20T22:44:45.947Z,28.57
2022-12-20T22:48:47.127Z,27.13
2022-12-20T22:52:48.301Z,23.70
2022-12-20T22:56:49.457Z,28.00
2022-12-20T23:00:50.647Z,28.47
2022-12-20T23:04:51.990Z,27.87
2022-12-20T23:08:53.272Z,23.10
2022-12-20T23:13:13.092Z,21.50
2022-12-20T23:17:14.247Z,22.70
2022-12-20T23:21:33.977Z,19.57
2022-12-20T23:25:35.132Z,20.03
2022-12-20T23:29:36.309Z,16.60
2022-12-20T23:33:37.492Z,15.50
2022-12-20T23:37:39.091Z,13.23
2022-12-20T23:41:40.240Z,13.53
2022-12-20T23:45:41.445Z,14.00
2022-12-20T23:49:42.560Z,12.83
2022-12-20T23:53:44.128Z,13.43
2022-12-20T23:57:45.268Z,13.30
